Time;durP1;ratioP1;P1;durP2;ratioP2;P2;SDS_P1;SDS_P2;PMS_P1;PMS_P2;Temp;Humidity;BMP_temperature;BMP_pressure;BME280_temperature;BME280_humidity;BME280_pressure;Samples;Min_cycle;Max_cycle;Signal;HPM_P1;HPM_P2
2023/03/28 00:00:33;;;;;;;9.90;2.10;;;2.30;99.90;;;;;;5046515;28;20086;-61
2023/03/28 00:02:58;;;;;;;12.93;2.80;;;2.30;99.90;;;;;;5039759;28;20042;-61
2023/03/28 00:05:24;;;;;;;11.05;3.17;;;2.30;99.90;;;;;;5032886;28;20034;-62
2023/03/28 00:07:50;;;;;;;19.60;4.47;;;2.30;99.90;;;;;;5047654;28;20090;-62
2023/03/28 00:10:16;;;;;;;16.45;4.07;;;2.30;99.90;;;;;;5046503;28;20068;-62
2023/03/28 00:12:42;;;;;;;16.20;5.07;;;2.20;99.90;;;;;;5049436;28;20069;-62
2023/03/28 00:15:08;;;;;;;15.95;3.40;;;2.20;99.90;;;;;;5050334;28;20028;-61
2023/03/28 00:17:34;;;;;;;13.85;3.42;;;2.30;99.90;;;;;;5042959;28;20112;-62
2023/03/28 00:20:03;;;;;;;14.57;2.25;;;2.30;99.90;;;;;;5043635;28;20065;-63
2023/03/28 00:22:32;;;;;;;10.55;2.08;;;2.30;99.90;;;;;;5051129;28;20045;-61
2023/03/28 00:24:57;;;;;;;10.95;3.25;;;2.30;99.90;;;;;;5044874;28;20099;-62
2023/03/28 00:27:24;;;;;;;12.63;2.53;;;2.30;99.90;;;;;;5050246;28;20438;-62
2023/03/28 00:29:50;;;;;;;13.52;2.30;;;2.20;99.90;;;;;;5043310;28;20054;-62
2023/03/28 00:32:16;;;;;;;9.57;2.58;;;2.30;99.90;;;;;;5041916;28;20065;-61
2023/03/28 00:34:42;;;;;;;12.85;2.63;;;2.20;99.90;;;;;;5049339;28;20069;-61
2023/03/28 00:37:09;;;;;;;12.25;2.65;;;2.20;99.90;;;;;;5051835;28;20047;-61
2023/03/28 00:39:36;;;;;;;12.27;2.35;;;2.20;99.90;;;;;;5051342;28;20045;-62
2023/03/28 00:42:02;;;;;;;10.35;2.10;;;2.20;99.90;;;;;;5050586;28;20037;-63
2023/03/28 00:44:50;;;;;;;11.48;2.53;;;2.20;99.90;;;;;;5041065;28;20037;-62
2023/03/28 00:47:29;;;;;;;11.82;2.50;;;2.20;99.90;;;;;;5036764;28;20053;-62
2023/03/28 00:50:13;;;;;;;11.20;2.60;;;2.20;99.90;;;;;;5048871;28;20044;-62
2023/03/28 00:52:45;;;;;;;8.57;2.65;;;2.10;99.90;;;;;;5042020;28;20483;-61
2023/03/28 00:55:17;;;;;;;11.38;2.58;;;2.10;99.90;;;;;;5051784;28;20033;-62
2023/03/28 00:57:46;;;;;;;5.68;2.13;;;2.10;99.90;;;;;;5044779;28;20036;-62
2023/03/28 01:00:15;;;;;;;11.38;2.38;;;2.10;99.90;;;;;;5046314;28;20029;-61
2023/03/28 01:02:49;;;;;;;10.45;2.38;;;2.10;99.90;;;;;;5041542;28;20086;-61
2023/03/28 01:05:16;;;;;;;15.30;2.15;;;2.10;99.90;;;;;;5043670;28;20079;-61
2023/03/28 01:07:46;;;;;;;11.30;2.38;;;2.00;99.90;;;;;;5037231;28;20028;-61
2023/03/28 01:10:12;;;;;;;13.80;2.25;;;2.10;99.90;;;;;;5047725;28;20394;-61
2023/03/28 01:12:39;;;;;;;14.93;2.78;;;2.10;99.90;;;;;;5039845;28;20044;-61
2023/03/28 01:15:05;;;;;;;16.40;2.63;;;2.10;99.90;;;;;;5041458;28;20044;-61
2023/03/28 01:17:31;;;;;;;8.43;2.17;;;2.00;99.90;;;;;;5043550;28;20593;-62
2023/03/28 01:20:21;;;;;;;14.68;2.42;;;2.00;99.90;;;;;;5041530;28;20063;-61
2023/03/28 01:23:05;;;;;;;11.00;2.10;;;2.00;99.90;;;;;;5049169;28;20089;-61
2023/03/28 01:25:45;;;;;;;11.60;2.10;;;1.90;99.90;;;;;;5042264;28;20041;-62
2023/03/28 01:28:35;;;;;;;9.65;2.00;;;1.90;99.90;;;;;;5042614;28;20454;-61
2023/03/28 01:31:04;;;;;;;11.65;2.38;;;1.90;99.90;;;;;;5041800;28;20037;-61
2023/03/28 01:33:48;;;;;;;8.95;2.30;;;1.90;99.90;;;;;;5046797;28;20053;-61
2023/03/28 01:36:56;;;;;;;8.32;2.20;;;1.80;99.90;;;;;;5049494;28;20116;-61
2023/03/28 01:39:51;;;;;;;14.20;2.38;;;1.90;99.90;;;;;;5040019;28;20033;-61
2023/03/28 01:42:37;;;;;;;8.38;2.22;;;1.90;99.90;;;;;;5044121;28;20044;-61
2023/03/28 01:45:30;;;;;;;7.93;1.77;;;1.90;99.90;;;;;;5054711;28;20086;-61
2023/03/28 01:48:05;;;;;;;9.43;1.80;;;1.90;99.90;;;;;;5046876;28;20433;-62
2023/03/28 01:50:46;;;;;;;9.35;1.98;;;1.80;99.90;;;;;;5053760;28;20160;-62
2023/03/28 01:53:27;;;;;;;10.85;2.08;;;1.80;99.90;;;;;;5046751;28;20037;-61
2023/03/28 01:56:00;;;;;;;;;;;1.80;99.90;;;;;;5042977;28;20483;-62
2023/03/28 01:58:37;;;;;;;8.98;2.40;;;1.70;99.90;;;;;;5046539;28;19929;-61
2023/03/28 02:01:23;;;;;;;12.05;2.22;;;1.70;99.90;;;;;;5040043;28;20038;-62
2023/03/28 02:03:54;;;;;;;10.95;2.25;;;1.60;99.90;;;;;;5040912;28;20436;-62
2023/03/28 02:06:21;;;;;;;14.65;2.30;;;1.60;99.90;;;;;;5048565;28;20317;-62
2023/03/28 02:08:50;;;;;;;9.30;2.13;;;1.60;99.90;;;;;;5043748;28;20495;-62
2023/03/28 02:11:15;;;;;;;11.35;2.45;;;1.60;99.90;;;;;;5050175;28;20032;-62
2023/03/28 02:13:47;;;;;;;11.82;2.22;;;1.60;99.90;;;;;;5053343;28;20033;-62
2023/03/28 02:16:15;;;;;;;9.68;2.42;;;1.60;99.90;;;;;;5045646;28;20506;-61
2023/03/28 02:18:46;;;;;;;11.95;2.28;;;1.60;99.90;;;;;;5051558;28;20502;-62
2023/03/28 02:21:21;;;;;;;9.10;2.00;;;1.70;99.90;;;;;;5053316;28;20036;-62
2023/03/28 02:23:52;;;;;;;14.25;2.50;;;1.60;99.90;;;;;;5052169;28;20045;-62
2023/03/28 02:26:19;;;;;;;11.23;2.20;;;1.60;99.90;;;;;;5046436;28;20527;-62
2023/03/28 02:28:48;;;;;;;12.55;2.28;;;1.60;99.90;;;;;;5052599;28;20053;-62
2023/03/28 02:31:14;;;;;;;11.25;2.83;;;1.50;99.90;;;;;;5050409;28;20079;-62
2023/03/28 02:33:42;;;;;;;11.20;2.00;;;1.60;99.90;;;;;;5052988;28;20045;-62
2023/03/28 02:36:17;;;;;;;9.25;2.17;;;1.50;99.90;;;;;;5028687;28;20037;-62
2023/03/28 02:39:00;;;;;;;8.48;2.13;;;1.50;99.90;;;;;;5050058;28;20083;-62
2023/03/28 02:41:42;;;;;;;13.50;2.40;;;1.50;99.90;;;;;;5048100;28;20040;-62
2023/03/28 02:44:31;;;;;;;13.52;2.45;;;1.50;99.90;;;;;;5053215;28;20514;-61
2023/03/28 02:47:42;;;;;;;8.38;2.42;;;1.50;99.90;;;;;;5050123;28;20525;-61
2023/03/28 02:50:24;;;;;;;10.35;2.35;;;1.50;99.90;;;;;;4958721;28;20101;-61
2023/03/28 02:53:12;;;;;;;12.75;2.00;;;1.50;99.90;;;;;;5037027;28;20059;-61
2023/03/28 02:55:43;;;;;;;11.88;1.98;;;1.50;99.90;;;;;;5047470;28;20037;-61
2023/03/28 02:58:36;;;;;;;11.40;2.20;;;1.50;99.90;;;;;;5052149;28;20053;-61
2023/03/28 03:01:05;;;;;;;13.20;3.20;;;1.40;99.90;;;;;;5050814;28;20025;-61
2023/03/28 03:03:32;;;;;;;6.75;2.10;;;1.40;99.90;;;;;;5050920;28;20040;-61
2023/03/28 03:08:29;;;;;;;11.50;2.70;;;1.40;99.90;;;;;;5029826;28;20403;-65
2023/03/28 03:10:55;;;;;;;15.77;2.47;;;1.40;99.90;;;;;;5029886;28;20041;-65
2023/03/28 03:13:21;;;;;;;8.20;2.42;;;1.30;99.90;;;;;;5028942;28;20037;-65
2023/03/28 03:15:46;;;;;;;12.32;2.10;;;1.30;99.90;;;;;;5032223;28;20129;-65
2023/03/28 03:18:12;;;;;;;10.70;2.25;;;1.30;99.90;;;;;;5038608;28;20441;-65
2023/03/28 03:20:39;;;;;;;8.00;2.28;;;1.20;99.90;;;;;;5043986;28;20037;-65
2023/03/28 03:23:06;;;;;;;11.60;3.10;;;1.20;99.90;;;;;;5035662;28;20120;-65
2023/03/28 03:25:33;;;;;;;9.85;2.20;;;1.20;99.90;;;;;;5029495;28;20041;-65
2023/03/28 03:27:59;;;;;;;8.80;2.20;;;1.10;99.90;;;;;;5035554;28;20043;-65
2023/03/28 03:30:26;;;;;;;10.73;2.13;;;1.10;99.90;;;;;;5037003;28;20033;-65
2023/03/28 03:32:51;;;;;;;13.57;2.60;;;1.10;99.90;;;;;;5037965;28;20033;-62
2023/03/28 03:35:18;;;;;;;6.95;1.65;;;1.10;99.90;;;;;;5032116;28;20033;-62
2023/03/28 03:37:44;;;;;;;10.20;2.20;;;1.00;99.90;;;;;;5041269;28;20189;-62
2023/03/28 03:40:11;;;;;;;14.95;2.38;;;1.00;99.90;;;;;;5033327;28;20059;-62
2023/03/28 03:42:37;;;;;;;11.00;2.05;;;1.00;99.90;;;;;;5027201;28;20068;-62
2023/03/28 03:45:03;;;;;;;11.40;2.35;;;0.90;99.90;;;;;;5036108;28;20482;-62
2023/03/28 03:47:29;;;;;;;11.35;2.20;;;1.00;99.90;;;;;;5036260;28;20593;-62
2023/03/28 03:49:55;;;;;;;15.98;2.63;;;1.00;99.90;;;;;;5032104;28;20116;-62
2023/03/28 03:52:20;;;;;;;7.18;2.17;;;1.10;99.90;;;;;;5039891;28;20034;-62
2023/03/28 03:54:46;;;;;;;13.05;2.10;;;1.00;99.90;;;;;;5031556;28;20154;-62
2023/03/28 03:57:11;;;;;;;14.35;3.22;;;1.10;99.90;;;;;;5031378;28;20064;-62
2023/03/28 03:59:37;;;;;;;11.43;2.50;;;1.10;99.90;;;;;;5039975;28;20037;-62
2023/03/28 04:02:02;;;;;;;9.27;2.58;;;1.00;99.90;;;;;;5028155;28;20099;-62
2023/03/28 04:04:28;;;;;;;10.05;2.42;;;1.10;99.90;;;;;;5029996;28;20044;-64
2023/03/28 04:06:56;;;;;;;11.95;3.05;;;1.00;99.90;;;;;;5031512;28;20120;-64
2023/03/28 04:09:25;;;;;;;10.82;2.50;;;1.00;99.90;;;;;;5032882;28;20432;-63
2023/03/28 04:11:51;;;;;;;10.85;2.22;;;1.00;99.90;;;;;;5024760;28;20025;-63
2023/03/28 04:14:17;;;;;;;11.88;2.30;;;1.00;99.90;;;;;;5025903;28;20052;-64
2023/03/28 04:16:43;;;;;;;5.50;2.17;;;1.00;99.90;;;;;;5030413;28;20124;-64
2023/03/28 04:19:09;;;;;;;15.25;2.47;;;1.00;99.90;;;;;;5031261;28;20042;-64
2023/03/28 04:21:36;;;;;;;6.28;1.63;;;0.90;99.90;;;;;;5022326;28;20034;-63
2023/03/28 04:24:02;;;;;;;10.30;2.47;;;0.90;99.90;;;;;;5031284;28;20438;-63
2023/03/28 04:26:28;;;;;;;6.95;2.25;;;0.90;99.90;;;;;;5030254;28;20052;-63
2023/03/28 04:28:55;;;;;;;7.40;2.58;;;0.90;99.90;;;;;;5035562;28;20710;-63
2023/03/28 04:31:27;;;;;;;12.25;2.35;;;0.90;99.90;;;;;;5024889;28;21558;-64
2023/03/28 04:33:53;;;;;;;10.85;2.05;;;0.90;99.90;;;;;;5034929;28;20120;-63
2023/03/28 04:36:21;;;;;;;14.32;2.80;;;0.90;99.90;;;;;;5031978;28;20120;-64
2023/03/28 04:38:47;;;;;;;10.02;2.13;;;0.90;99.90;;;;;;5020461;28;20087;-63
2023/03/28 04:41:15;;;;;;;5.53;2.25;;;0.90;99.90;;;;;;5018171;28;20037;-63
2023/03/28 04:43:42;;;;;;;8.77;2.20;;;0.90;99.90;;;;;;5045767;28;20036;-64
2023/03/28 04:46:08;;;;;;;10.10;2.08;;;0.90;99.90;;;;;;5031906;28;20041;-63
2023/03/28 04:48:33;;;;;;;10.73;2.50;;;0.80;99.90;;;;;;5027119;28;20414;-64
2023/03/28 04:50:59;;;;;;;7.18;2.53;;;0.80;99.90;;;;;;5030817;28;20372;-63
2023/03/28 04:53:25;;;;;;;10.27;2.70;;;0.80;99.90;;;;;;5030308;28;20041;-63
2023/03/28 04:55:51;;;;;;;7.53;2.30;;;0.80;99.90;;;;;;5027995;28;20380;-63
2023/03/28 04:58:18;;;;;;;11.10;2.22;;;0.80;99.90;;;;;;5046709;28;20036;-63
2023/03/28 05:00:44;;;;;;;12.75;2.65;;;0.80;99.90;;;;;;5037778;28;20516;-63
2023/03/28 05:03:18;;;;;;;14.18;2.33;;;0.90;99.90;;;;;;5028811;28;20495;-64
2023/03/28 05:05:46;;;;;;;10.45;2.50;;;0.90;99.90;;;;;;5030808;28;20049;-63
2023/03/28 05:08:13;;;;;;;9.18;2.25;;;0.90;99.90;;;;;;5031584;28;20079;-63
2023/03/28 05:10:39;;;;;;;14.43;2.65;;;0.90;99.90;;;;;;5026344;28;20047;-63
2023/03/28 05:13:04;;;;;;;6.95;1.92;;;1.00;99.90;;;;;;5025086;28;20133;-63
2023/03/28 05:15:30;;;;;;;10.20;2.67;;;1.00;99.90;;;;;;5033329;28;20120;-63
2023/03/28 05:17:56;;;;;;;9.45;2.13;;;1.00;99.90;;;;;;5029882;28;20037;-64
2023/03/28 05:20:22;;;;;;;10.63;2.42;;;1.00;99.90;;;;;;5032705;28;20099;-63
2023/03/28 05:22:48;;;;;;;7.05;2.28;;;1.00;99.90;;;;;;5032922;28;20055;-63
2023/03/28 05:25:14;;;;;;;7.80;2.13;;;1.00;99.90;;;;;;5037366;28;20414;-63
2023/03/28 05:27:40;;;;;;;14.00;2.30;;;1.10;99.90;;;;;;5038604;28;20131;-63
2023/03/28 05:30:07;;;;;;;12.73;2.38;;;1.20;99.90;;;;;;5036607;28;20462;-63
2023/03/28 05:32:32;;;;;;;11.77;2.63;;;1.20;99.90;;;;;;5028608;28;20132;-63
2023/03/28 05:34:58;;;;;;;13.80;2.65;;;1.20;99.90;;;;;;5029374;28;20030;-63
2023/03/28 05:37:24;;;;;;;10.07;2.33;;;1.30;99.90;;;;;;5023578;28;20045;-63
2023/03/28 05:39:50;;;;;;;12.50;2.40;;;1.30;99.90;;;;;;5029538;28;20044;-63
2023/03/28 05:42:16;;;;;;;11.18;2.50;;;1.30;99.90;;;;;;5026981;28;20395;-64
2023/03/28 05:44:41;;;;;;;12.00;2.60;;;1.40;99.90;;;;;;5028790;28;20037;-63
2023/03/28 05:47:07;;;;;;;7.10;2.28;;;1.40;99.90;;;;;;5031658;28;20037;-64
2023/03/28 05:49:32;;;;;;;11.48;2.15;;;1.40;99.90;;;;;;5028801;28;20037;-63
2023/03/28 05:51:58;;;;;;;9.60;2.10;;;1.50;99.90;;;;;;5027527;28;20034;-64
2023/03/28 05:54:23;;;;;;;7.90;2.47;;;1.50;99.90;;;;;;5033433;28;20033;-64
2023/03/28 05:56:49;;;;;;;14.02;2.55;;;1.50;99.90;;;;;;5031148;28;20120;-64
2023/03/28 05:59:17;;;;;;;14.32;2.35;;;1.50;99.90;;;;;;5026644;28;20407;-64
2023/03/28 06:01:44;;;;;;;13.93;2.78;;;1.50;99.90;;;;;;5025528;28;20057;-64
2023/03/28 06:04:10;;;;;;;6.57;2.17;;;1.50;99.90;;;;;;5022955;28;20029;-64
2023/03/28 06:06:36;;;;;;;14.10;2.97;;;1.60;99.90;;;;;;5039976;28;20568;-64
2023/03/28 06:09:02;;;;;;;8.95;2.78;;;1.60;99.90;;;;;;5042350;28;20454;-64
2023/03/28 06:11:27;;;;;;;8.98;2.40;;;1.70;99.90;;;;;;5050326;28;20120;-64
2023/03/28 06:13:53;;;;;;;12.75;2.72;;;1.70;99.90;;;;;;5031036;28;20288;-63
2023/03/28 06:16:18;;;;;;;15.57;3.35;;;1.70;99.90;;;;;;5029170;28;20037;-63
2023/03/28 06:18:44;;;;;;;13.55;3.10;;;1.80;99.90;;;;;;5023502;28;20487;-64
2023/03/28 06:21:10;;;;;;;9.55;2.80;;;1.80;99.90;;;;;;5031890;28;20041;-63
2023/03/28 06:23:35;;;;;;;9.65;3.20;;;1.90;99.90;;;;;;5042442;28;20410;-64
2023/03/28 06:26:02;;;;;;;7.70;2.97;;;2.00;99.90;;;;;;5040320;28;20045;-63
2023/03/28 06:28:27;;;;;;;10.65;2.92;;;2.00;99.90;;;;;;5051236;28;20072;-63
2023/03/28 06:30:53;;;;;;;7.93;2.70;;;2.10;99.90;;;;;;5032434;28;20703;-64
2023/03/28 06:33:18;;;;;;;10.23;2.45;;;2.20;99.90;;;;;;5039242;28;20495;-64
2023/03/28 06:35:50;;;;;;;11.52;2.50;;;2.30;99.90;;;;;;5027915;28;20553;-63
2023/03/28 06:38:16;;;;;;;7.20;2.20;;;2.40;99.90;;;;;;5092268;22;20409;-64
2023/03/28 06:40:42;;;;;;;8.93;2.20;;;2.50;99.90;;;;;;5083910;28;20048;-64
2023/03/28 06:43:07;;;;;;;10.13;2.80;;;2.60;99.90;;;;;;5076317;28;20041;-64
2023/03/28 06:45:33;;;;;;;10.68;3.17;;;2.70;99.90;;;;;;5093932;28;20035;-64
2023/03/28 06:47:58;;;;;;;8.35;2.40;;;2.70;99.90;;;;;;5077174;28;20046;-64
2023/03/28 06:50:24;;;;;;;12.77;2.75;;;2.70;99.90;;;;;;5073062;28;20075;-64
2023/03/28 06:52:50;;;;;;;7.82;2.42;;;2.70;99.90;;;;;;5068939;22;20037;-64
2023/03/28 06:55:15;;;;;;;8.23;2.53;;;2.80;99.90;;;;;;5044600;28;20490;-65
2023/03/28 06:57:41;;;;;;;10.52;2.50;;;2.80;99.90;;;;;;5052143;28;20106;-64
2023/03/28 07:00:07;;;;;;;9.02;2.47;;;2.80;99.90;;;;;;5038133;28;20064;-66
2023/03/28 07:02:32;;;;;;;9.30;2.30;;;2.80;99.90;;;;;;5049483;28;20548;-67
2023/03/28 07:04:58;;;;;;;7.97;2.88;;;2.90;99.90;;;;;;5049815;28;20029;-64
2023/03/28 07:07:24;;;;;;;11.57;2.45;;;3.00;99.90;;;;;;5041402;28;20041;-67
2023/03/28 07:09:52;;;;;;;8.23;2.60;;;3.00;99.90;;;;;;5053444;28;20037;-64
2023/03/28 07:12:18;;;;;;;10.10;2.63;;;3.10;99.90;;;;;;5050945;28;20491;-64
2023/03/28 07:14:44;;;;;;;10.07;2.65;;;3.10;99.90;;;;;;5044049;28;20049;-67
2023/03/28 07:17:10;;;;;;;10.43;2.75;;;3.20;99.90;;;;;;5048321;28;20044;-66
2023/03/28 07:19:36;;;;;;;6.63;2.50;;;3.30;99.90;;;;;;5052621;28;20430;-66
2023/03/28 07:22:02;;;;;;;9.20;2.67;;;3.30;99.90;;;;;;5043377;28;20036;-64
2023/03/28 07:24:28;;;;;;;9.13;2.70;;;3.40;99.90;;;;;;5020400;28;20095;-64
2023/03/28 07:26:54;;;;;;;8.63;2.47;;;3.40;99.90;;;;;;5047154;28;20037;-64
2023/03/28 07:29:20;;;;;;;12.85;3.05;;;3.60;99.90;;;;;;5045405;28;20036;-65
2023/03/28 07:31:45;;;;;;;7.20;2.47;;;3.70;99.90;;;;;;5051505;28;20041;-65
2023/03/28 07:34:11;;;;;;;7.70;2.38;;;3.80;99.90;;;;;;5051939;28;20029;-64
2023/03/28 07:36:38;;;;;;;8.30;2.75;;;4.00;99.90;;;;;;5052851;28;20513;-64
2023/03/28 07:39:04;;;;;;;7.20;1.88;;;4.30;99.90;;;;;;5052466;28;20036;-64
2023/03/28 07:41:30;;;;;;;10.68;2.10;;;4.30;99.90;;;;;;5048071;28;20028;-64
2023/03/28 07:43:55;;;;;;;12.50;2.80;;;4.40;99.90;;;;;;5035699;28;20056;-64
2023/03/28 07:46:22;;;;;;;6.85;2.50;;;4.40;99.90;;;;;;5052686;28;20123;-64
2023/03/28 07:48:48;;;;;;;8.88;2.60;;;4.40;99.90;;;;;;5049070;28;20047;-64
2023/03/28 07:51:14;;;;;;;11.93;3.00;;;4.40;99.90;;;;;;5044650;28;20135;-64
2023/03/28 07:53:40;;;;;;;12.05;2.97;;;4.40;99.90;;;;;;5052337;28;20041;-64
2023/03/28 07:56:10;;;;;;;8.85;2.85;;;4.50;99.90;;;;;;5045426;28;20375;-64
2023/03/28 07:58:40;;;;;;;8.27;2.90;;;4.50;99.90;;;;;;5048931;28;20040;-64
2023/03/28 08:01:07;;;;;;;11.82;3.03;;;4.50;99.90;;;;;;5034966;28;20125;-64
2023/03/28 08:03:34;;;;;;;7.60;2.72;;;4.60;99.90;;;;;;5049126;28;20036;-64
2023/03/28 08:06:01;;;;;;;8.90;2.47;;;4.60;99.90;;;;;;5050620;28;20079;-64
2023/03/28 08:08:28;;;;;;;7.05;2.83;;;4.70;99.90;;;;;;5047343;28;20037;-64
2023/03/28 08:10:53;;;;;;;8.88;3.28;;;4.90;99.90;;;;;;5044010;28;20029;-63
2023/03/28 08:13:19;;;;;;;9.43;2.72;;;5.00;99.90;;;;;;5051728;28;20444;-64
2023/03/28 08:15:48;;;;;;;9.82;2.22;;;5.20;99.90;;;;;;5050829;28;20041;-64
2023/03/28 08:18:19;;;;;;;9.30;2.42;;;5.20;99.90;;;;;;5045510;28;20053;-64
2023/03/28 08:20:46;;;;;;;8.40;3.13;;;5.20;99.90;;;;;;5044001;28;20044;-64
2023/03/28 08:23:12;;;;;;;8.18;2.30;;;5.20;99.90;;;;;;5051353;28;20103;-64
2023/03/28 08:25:37;;;;;;;6.70;2.63;;;5.40;99.90;;;;;;5049505;28;20037;-63
2023/03/28 08:28:03;;;;;;;7.57;2.63;;;5.40;99.90;;;;;;5032630;28;20053;-64
2023/03/28 08:30:29;;;;;;;12.05;2.90;;;5.50;99.90;;;;;;5039388;28;20044;-64
2023/03/28 08:32:54;;;;;;;9.55;2.40;;;5.60;99.90;;;;;;5050433;28;20389;-64
2023/03/28 08:35:20;;;;;;;12.10;2.60;;;5.70;99.90;;;;;;5045874;28;20087;-64
2023/03/28 08:37:46;;;;;;;8.48;2.47;;;5.70;99.90;;;;;;5049880;28;20083;-63
2023/03/28 08:40:17;;;;;;;10.80;2.55;;;5.80;99.90;;;;;;5050566;28;20033;-64
2023/03/28 08:43:10;;;;;;;10.18;2.17;;;5.80;99.90;;;;;;5041636;28;20034;-64
2023/03/28 08:45:53;;;;;;;6.20;2.05;;;5.80;99.90;;;;;;5048266;28;20032;-64
2023/03/28 08:48:33;;;;;;;9.13;2.40;;;5.90;99.90;;;;;;5051171;28;20068;-64
2023/03/28 08:51:23;;;;;;;9.68;2.80;;;6.00;99.90;;;;;;5047172;28;20065;-64
2023/03/28 08:53:59;;;;;;;10.23;2.55;;;6.10;99.90;;;;;;5023114;28;20048;-64
2023/03/28 08:56:26;;;;;;;10.90;3.28;;;6.20;99.90;;;;;;5016833;28;20044;-64
2023/03/28 08:58:56;;;;;;;9.98;2.22;;;6.30;99.90;;;;;;5050744;28;20059;-64
2023/03/28 09:01:24;;;;;;;5.35;2.03;;;6.40;99.90;;;;;;5040935;28;20037;-64
2023/03/28 09:03:50;;;;;;;8.40;2.20;;;6.40;99.90;;;;;;5051104;28;20102;-64
2023/03/28 09:06:25;;;;;;;7.10;2.42;;;6.30;99.90;;;;;;5050261;28;20044;-63
2023/03/28 09:08:59;;;;;;;5.03;2.42;;;6.40;99.90;;;;;;5032390;28;20045;-64
2023/03/28 09:11:27;;;;;;;8.23;2.50;;;6.40;99.90;;;;;;5037798;28;20040;-64
2023/03/28 09:13:59;;;;;;;6.70;2.10;;;6.50;99.90;;;;;;5031545;28;20570;-64
2023/03/28 09:16:41;;;;;;;7.70;1.95;;;6.70;99.90;;;;;;5042938;28;20044;-64
2023/03/28 09:19:31;;;;;;;6.63;1.90;;;6.90;99.90;;;;;;5033424;28;20037;-64
2023/03/28 09:22:04;;;;;;;8.40;2.20;;;7.10;99.90;;;;;;5043154;28;20387;-64
2023/03/28 09:24:56;;;;;;;4.93;1.63;;;7.20;99.90;;;;;;5050896;28;20045;-64
2023/03/28 09:27:31;;;;;;;6.75;1.88;;;7.40;99.90;;;;;;4991343;28;20495;-64
2023/03/28 09:30:22;;;;;;;4.50;1.40;;;7.50;99.90;;;;;;5034728;28;20151;-63
2023/03/28 09:32:54;;;;;;;2.13;1.70;;;7.50;99.90;;;;;;5046693;28;20087;-63
2023/03/28 09:35:23;;;;;;;4.78;1.98;;;7.50;99.90;;;;;;5047237;28;20082;-63
2023/03/28 09:37:55;;;;;;;6.35;1.38;;;7.70;99.90;;;;;;5051350;28;20037;-64
2023/03/28 09:40:32;;;;;;;7.10;2.03;;;7.80;99.90;;;;;;5050863;28;20062;-63
2023/03/28 09:43:10;;;;;;;5.25;1.67;;;7.90;99.90;;;;;;5037167;28;20053;-63
2023/03/28 09:45:52;;;;;;;5.80;1.80;;;7.80;99.90;;;;;;5044907;28;20037;-63
2023/03/28 09:48:30;;;;;;;8.15;1.30;;;7.80;99.90;;;;;;5040446;28;20041;-63
2023/03/28 09:50:57;;;;;;;6.95;1.75;;;7.80;99.90;;;;;;5050599;28;20052;-64
2023/03/28 09:53:35;;;;;;;4.43;1.30;;;8.00;99.90;;;;;;5047510;28;20072;-63
2023/03/28 09:56:26;;;;;;;5.43;1.58;;;8.20;99.90;;;;;;5052740;28;20028;-64
2023/03/28 09:59:03;;;;;;;3.88;1.13;;;8.50;99.90;;;;;;5020989;28;20507;-63
2023/03/28 10:01:35;;;;;;;4.30;1.10;;;8.60;99.90;;;;;;5045858;28;20033;-63
2023/03/28 10:04:07;;;;;;;2.97;1.10;;;8.70;99.90;;;;;;5046778;28;20049;-64
2023/03/28 10:06:33;;;;;;;1.33;0.80;;;8.70;99.90;;;;;;5047319;28;20048;-64
2023/03/28 10:09:17;;;;;;;6.47;1.30;;;8.70;99.90;;;;;;5047290;28;20086;-64
2023/03/28 10:11:55;;;;;;;4.20;1.00;;;8.60;92.00;;;;;;5052162;28;20079;-63
2023/03/28 10:14:31;;;;;;;3.15;1.20;;;8.60;97.80;;;;;;5048141;28;20080;-63
2023/03/28 10:17:04;;;;;;;3.25;1.00;;;8.50;95.60;;;;;;5049239;28;20441;-64
2023/03/28 10:19:33;;;;;;;3.03;0.88;;;8.50;96.60;;;;;;5046118;28;20040;-64
2023/03/28 10:22:11;;;;;;;4.75;1.10;;;8.50;97.70;;;;;;5050342;28;20041;-63
2023/03/28 10:24:38;;;;;;;3.08;1.15;;;8.60;98.10;;;;;;5048581;28;20505;-64
2023/03/28 10:27:16;;;;;;;2.72;1.00;;;8.70;99.90;;;;;;5040982;28;20041;-64
2023/03/28 10:29:43;;;;;;;3.53;0.95;;;8.90;98.40;;;;;;5021999;28;20098;-64
2023/03/28 10:32:23;;;;;;;4.07;0.90;;;8.80;95.40;;;;;;5043737;28;20045;-64
2023/03/28 10:35:26;;;;;;;2.88;1.10;;;8.70;94.10;;;;;;5049839;28;21961;-64
2023/03/28 10:37:55;;;;;;;2.95;1.30;;;8.80;91.70;;;;;;5001481;28;20052;-64
2023/03/28 10:40:21;;;;;;;4.47;1.48;;;8.80;91.90;;;;;;5048317;28;20032;-64
2023/03/28 10:42:49;;;;;;;4.60;1.40;;;8.90;93.00;;;;;;5050490;28;20036;-64
2023/03/28 10:45:22;;;;;;;3.10;1.00;;;8.80;92.40;;;;;;5046512;28;20065;-64
2023/03/28 10:47:51;;;;;;;2.78;1.20;;;8.80;91.20;;;;;;5030781;28;20049;-64
2023/03/28 10:50:26;;;;;;;4.18;1.38;;;8.70;92.20;;;;;;5052606;28;20095;-64
2023/03/28 10:53:07;;;;;;;2.55;1.08;;;8.70;91.30;;;;;;5043411;28;20512;-64
2023/03/28 10:55:39;;;;;;;3.88;1.40;;;8.70;92.20;;;;;;5052474;28;20589;-64
2023/03/28 10:58:04;;;;;;;5.03;1.40;;;8.80;92.40;;;;;;5047899;28;20072;-64
2023/03/28 11:00:50;;;;;;;5.07;1.40;;;8.80;92.60;;;;;;5042214;28;20452;-64
2023/03/28 11:03:40;;;;;;;3.20;1.30;;;9.00;93.70;;;;;;5043598;28;20037;-63
2023/03/28 11:06:18;;;;;;;3.35;1.25;;;9.10;92.00;;;;;;5037997;28;20072;-64
2023/03/28 11:09:21;;;;;;;5.50;1.48;;;8.90;90.40;;;;;;5046470;28;20057;-64
2023/03/28 11:12:04;;;;;;;5.32;1.67;;;8.70;90.00;;;;;;5032456;28;20048;-64
2023/03/28 11:14:56;;;;;;;6.78;1.85;;;8.40;91.20;;;;;;5036924;28;20040;-64
2023/03/28 11:17:33;;;;;;;4.32;1.50;;;8.40;93.60;;;;;;5040818;28;20417;-64
2023/03/28 11:20:20;;;;;;;4.95;1.60;;;8.30;95.80;;;;;;5052181;28;20499;-64
2023/03/28 11:23:05;;;;;;;7.50;1.90;;;8.40;97.70;;;;;;5034868;28;20044;-64
2023/03/28 11:25:54;;;;;;;4.80;1.70;;;8.50;97.90;;;;;;5050943;28;20508;-64
2023/03/28 11:28:25;;;;;;;2.83;1.27;;;8.60;98.30;;;;;;5044664;28;20042;-64
2023/03/28 11:30:55;;;;;;;3.88;1.60;;;8.70;97.10;;;;;;5043473;28;20064;-64
2023/03/28 11:33:42;;;;;;;3.85;1.60;;;8.70;94.20;;;;;;5046593;28;20037;-64
2023/03/28 11:36:23;;;;;;;3.95;1.50;;;8.70;94.50;;;;;;5038320;28;20490;-64
2023/03/28 11:39:18;;;;;;;2.55;1.30;;;8.70;93.40;;;;;;5033606;28;20108;-64
2023/03/28 11:41:46;;;;;;;8.20;1.38;;;8.70;93.30;;;;;;5036482;28;20128;-64
2023/03/28 11:44:21;;;;;;;3.83;1.15;;;8.70;94.00;;;;;;5033455;28;20054;-64
2023/03/28 11:47:04;;;;;;;5.65;1.50;;;8.60;91.80;;;;;;5033107;28;20041;-64
2023/03/28 11:49:57;;;;;;;5.65;1.73;;;8.50;91.70;;;;;;5039920;28;20501;-64
2023/03/28 11:52:32;;;;;;;5.85;1.92;;;8.50;94.00;;;;;;5028808;28;20164;-64
2023/03/28 11:55:22;;;;;;;3.10;1.60;;;8.50;93.80;;;;;;5042100;28;20045;-64
2023/03/28 11:58:07;;;;;;;4.03;1.35;;;8.50;92.80;;;;;;5043894;28;20490;-64
2023/03/28 12:00:40;;;;;;;4.55;1.65;;;8.60;93.20;;;;;;5051177;28;20124;-64
2023/03/28 12:03:20;;;;;;;5.78;1.60;;;8.70;92.80;;;;;;5048364;28;20059;-64
2023/03/28 12:05:53;;;;;;;4.47;1.75;;;8.70;91.00;;;;;;5049325;28;20452;-64
2023/03/28 12:08:31;;;;;;;4.78;1.60;;;8.80;91.40;;;;;;5046429;28;20037;-64
2023/03/28 12:11:06;;;;;;;4.30;1.75;;;8.80;91.10;;;;;;5050326;28;20040;-64
2023/03/28 12:13:43;;;;;;;5.85;1.88;;;8.80;91.00;;;;;;5041711;28;20874;-64
2023/03/28 12:16:14;;;;;;;6.38;1.67;;;8.90;91.30;;;;;;5029614;28;20041;-65
2023/03/28 12:18:56;;;;;;;5.70;1.63;;;8.80;90.80;;;;;;5048444;28;20036;-64
2023/03/28 12:21:32;;;;;;;5.07;2.05;;;8.70;85.60;;;;;;5050623;28;20037;-64
2023/03/28 12:24:22;;;;;;;4.20;1.90;;;8.70;85.30;;;;;;5046222;28;20028;-64
2023/03/28 12:27:00;;;;;;;5.13;1.95;;;8.70;90.70;;;;;;5048041;28;20036;-64
2023/03/28 12:29:31;;;;;;;6.88;2.45;;;8.80;91.20;;;;;;5049169;28;20033;-64
2023/03/28 12:32:12;;;;;;;8.23;2.03;;;8.90;92.80;;;;;;5042162;28;20037;-64
2023/03/28 12:34:46;;;;;;;4.72;2.05;;;9.10;93.80;;;;;;5051378;28;20041;-64
2023/03/28 12:37:27;;;;;;;8.60;2.33;;;9.30;93.70;;;;;;5052173;28;20036;-64
2023/03/28 12:40:11;;;;;;;6.00;2.15;;;9.50;92.20;;;;;;5050063;28;20430;-65
2023/03/28 12:42:40;;;;;;;6.40;2.10;;;9.40;90.40;;;;;;5050193;28;20040;-64
2023/03/28 12:45:13;;;;;;;6.60;2.35;;;9.30;90.50;;;;;;5031781;28;20169;-64
2023/03/28 12:47:44;;;;;;;3.65;1.98;;;9.30;90.30;;;;;;5040280;28;20043;-64
2023/03/28 12:50:18;;;;;;;8.88;2.35;;;9.30;89.60;;;;;;5051906;28;20083;-64
2023/03/28 12:52:45;;;;;;;6.10;2.00;;;9.30;87.60;;;;;;5065081;22;20049;-61
2023/03/28 12:55:23;;;;;;;6.35;2.50;;;9.30;86.80;;;;;;5049734;28;20060;-61
2023/03/28 12:57:50;;;;;;;6.70;2.15;;;9.20;84.40;;;;;;5049868;28;20088;-62
2023/03/28 13:00:30;;;;;;;6.18;2.50;;;9.20;85.80;;;;;;5051233;28;20414;-61
2023/03/28 13:03:47;;;;;;;6.28;2.15;;;9.20;85.70;;;;;;5050693;28;20037;-62
2023/03/28 13:06:41;;;;;;;5.75;2.30;;;9.20;85.80;;;;;;5023514;28;20048;-62
2023/03/28 13:09:53;;;;;;;4.47;2.00;;;9.20;88.10;;;;;;5050366;28;20076;-62
2023/03/28 13:12:39;;;;;;;6.35;2.40;;;9.20;89.60;;;;;;5016953;28;20053;-61
2023/03/28 13:15:13;;;;;;;5.90;2.30;;;9.30;85.30;;;;;;5047485;28;20041;-62
2023/03/28 13:17:46;;;;;;;4.80;2.20;;;9.20;79.90;;;;;;5042536;28;20056;-61
2023/03/28 13:20:25;;;;;;;4.85;1.90;;;9.20;80.60;;;;;;5042789;28;20039;-61